UUEE/SVO METAR and TAF weather

Enter ICAO airport designator
Station Type Date Time Source
UUEE METAR 2020/03/28 15:00 UTC NOAA

UUEE 281500Z 21003MPS CAVOK 16/M03 Q1016 R24L/CLRD62 R24R/CLRD62 NOSIG


Station Type Date Time Source
UUEE Decoded METAR 2020/03/28 15:00 UTC NOAA

Moscow / Sheremet'Ye , Russia (UUEE) 55-59N 037-30E
Mar 28, 2020 - 11:00 AM EDT / 2020.03.28 1500 UTC
Wind: from the SSW (210 degrees) at 7 MPH (6 KT):0
Visibility: greater than 7 mile(s):0
Temperature: 60 F (16 C)
Dew Point: 26 F (-3 C)
Relative Humidity: 26%
Pressure (altimeter): 30.00 in. Hg (1016 hPa)
ob: UUEE 281500Z 21003MPS CAVOK 16/M03 Q1016 R24L/CLRD62 R24R/CLRD62 NOSIG
cycle: 15

Station Type Date Time Source
UUEE TAF 2020/03/28 15:24 UTC NOAA

TAF UUEE 281352Z 2815/2915 18003G08MPS 6000 NSC TX15/2912Z TN02/2903Z

Example: see airport list